Time;durP1;ratioP1;P1;durP2;ratioP2;P2;SDS_P1;SDS_P2;PMS_P1;PMS_P2;Temp;Humidity;BMP_temperature;BMP_pressure;BME280_temperature;BME280_humidity;BME280_pressure;Samples;Min_cycle;Max_cycle;Signal;HPM_P1;HPM_P2
2021/05/27 00:01:48;;;;;;;4.17;0.63;;;10.00;99.90;;;;;;5016156;28;20178;-68
2021/05/27 00:04:14;;;;;;;4.30;0.70;;;9.90;99.90;;;;;;4998986;28;20190;-67
2021/05/27 00:06:39;;;;;;;4.80;1.10;;;9.90;99.90;;;;;;5033847;28;20656;-65
2021/05/27 00:09:05;;;;;;;4.00;0.50;;;9.90;99.90;;;;;;5036649;28;20166;-67
2021/05/27 00:11:31;;;;;;;4.70;0.90;;;9.90;99.90;;;;;;5034318;28;20174;-66
2021/05/27 00:13:58;;;;;;;4.10;0.70;;;9.90;99.90;;;;;;5018194;28;20884;-67
2021/05/27 00:16:23;;;;;;;4.20;0.70;;;10.00;99.90;;;;;;5035963;28;20202;-68
2021/05/27 00:18:51;;;;;;;4.00;0.40;;;9.90;99.90;;;;;;5035653;28;20170;-67
2021/05/27 00:21:17;;;;;;;4.40;0.73;;;9.90;99.90;;;;;;5017041;28;20175;-66
2021/05/27 00:23:43;;;;;;;4.10;0.70;;;9.90;99.90;;;;;;5015752;28;20169;-67
2021/05/27 00:26:09;;;;;;;4.00;0.60;;;9.90;99.90;;;;;;5017784;28;20182;-67
2021/05/27 00:28:34;;;;;;;4.60;1.10;;;10.00;99.90;;;;;;5015588;28;20532;-67
2021/05/27 00:31:00;;;;;;;5.07;0.83;;;10.00;99.90;;;;;;5032830;28;20189;-66
2021/05/27 00:33:25;;;;;;;6.57;2.13;;;10.00;99.90;;;;;;5035294;28;20185;-67
2021/05/27 00:35:51;;;;;;;4.50;0.77;;;10.00;99.90;;;;;;5019809;28;20237;-66
2021/05/27 00:38:17;;;;;;;5.10;1.20;;;10.10;99.90;;;;;;5016030;28;20259;-66
2021/05/27 00:40:42;;;;;;;5.23;0.97;;;10.10;99.90;;;;;;5001698;28;20198;-67
2021/05/27 00:43:08;;;;;;;4.60;0.80;;;10.10;99.90;;;;;;4995820;28;20175;-66
2021/05/27 00:45:34;;;;;;;4.40;0.70;;;10.00;99.90;;;;;;5012315;28;20245;-67
2021/05/27 00:47:59;;;;;;;4.40;0.60;;;10.10;99.90;;;;;;5015469;28;20183;-65
2021/05/27 00:50:25;;;;;;;4.50;0.70;;;10.10;99.90;;;;;;5027150;28;20189;-66
2021/05/27 00:52:53;;;;;;;4.67;0.83;;;10.10;99.90;;;;;;5035070;28;20174;-67
2021/05/27 00:55:21;;;;;;;4.47;0.70;;;10.10;99.90;;;;;;5015855;28;20295;-66
2021/05/27 00:57:47;;;;;;;5.55;1.38;;;10.10;99.90;;;;;;5035214;28;20193;-67
2021/05/27 01:00:18;;;;;;;4.40;0.60;;;10.10;99.90;;;;;;5025002;28;20178;-67
2021/05/27 01:02:45;;;;;;;5.70;0.98;;;10.10;99.90;;;;;;5015247;28;20166;-68
2021/05/27 01:05:13;;;;;;;5.13;0.70;;;10.00;99.90;;;;;;5023842;28;20201;-66
2021/05/27 01:07:39;;;;;;;5.22;0.90;;;10.00;99.90;;;;;;5034781;28;20170;-67
2021/05/27 01:10:07;;;;;;;4.30;0.57;;;10.00;99.90;;;;;;5023383;28;20178;-67
2021/05/27 01:12:33;;;;;;;5.15;1.10;;;10.00;99.90;;;;;;5015634;28;20174;-68
2021/05/27 01:18:00;;;;;;;4.70;0.73;;;10.00;99.90;;;;;;4972034;28;20744;-69
2021/05/27 01:20:29;;;;;;;4.70;0.98;;;9.90;99.90;;;;;;4995502;28;20534;-68
2021/05/27 01:22:55;;;;;;;4.50;0.70;;;9.90;99.90;;;;;;5007410;28;20237;-65
2021/05/27 01:25:24;;;;;;;4.50;0.77;;;10.00;99.90;;;;;;5014917;28;20255;-68
2021/05/27 01:27:50;;;;;;;4.40;0.60;;;9.90;99.90;;;;;;5023084;28;20218;-66
2021/05/27 01:30:16;;;;;;;5.23;0.80;;;9.90;99.90;;;;;;5033682;28;20174;-67
2021/05/27 01:32:42;;;;;;;5.28;1.00;;;9.90;99.90;;;;;;5027268;28;20175;-66
2021/05/27 01:35:15;;;;;;;6.40;0.93;;;9.90;99.90;;;;;;5014608;28;20195;-67
2021/05/27 01:37:41;;;;;;;5.10;0.93;;;9.90;99.90;;;;;;5012884;28;20208;-67
2021/05/27 01:40:07;;;;;;;4.40;0.60;;;9.90;99.90;;;;;;5007952;28;20178;-67
2021/05/27 01:42:33;;;;;;;4.40;0.70;;;9.90;99.90;;;;;;5019441;28;20664;-66
2021/05/27 01:44:59;;;;;;;6.37;2.33;;;9.90;99.90;;;;;;5033825;28;20194;-67
2021/05/27 01:47:24;;;;;;;4.87;1.03;;;9.90;99.90;;;;;;5032628;28;20213;-66
2021/05/27 01:49:50;;;;;;;4.60;0.50;;;9.90;99.90;;;;;;5034255;28;20632;-67
2021/05/27 01:52:16;;;;;;;5.40;1.07;;;9.90;99.90;;;;;;5032735;28;20486;-67
2021/05/27 01:54:41;;;;;;;4.77;0.80;;;9.90;99.90;;;;;;5033773;28;20344;-67
2021/05/27 01:57:07;;;;;;;4.43;0.57;;;9.90;99.90;;;;;;5033507;28;20645;-68
2021/05/27 01:59:33;;;;;;;4.50;0.80;;;9.90;99.90;;;;;;5014290;28;20182;-67
2021/05/27 02:01:59;;;;;;;4.53;0.70;;;9.90;99.90;;;;;;5014226;28;20178;-67
2021/05/27 02:04:24;;;;;;;4.50;0.70;;;9.90;99.90;;;;;;5014726;28;20190;-66
2021/05/27 02:06:50;;;;;;;4.90;0.90;;;9.80;99.90;;;;;;5014141;28;20186;-67
2021/05/27 02:09:16;;;;;;;4.93;1.33;;;9.80;99.90;;;;;;5032220;28;20208;-67
2021/05/27 02:11:47;;;;;;;4.60;0.60;;;9.70;99.90;;;;;;5033902;28;20174;-68
2021/05/27 02:14:14;;;;;;;4.82;1.33;;;9.70;99.90;;;;;;5015703;28;20285;-67
2021/05/27 02:16:43;;;;;;;4.70;0.85;;;9.70;99.90;;;;;;5014355;28;20669;-68
2021/05/27 02:19:09;;;;;;;4.30;0.70;;;9.70;99.90;;;;;;5013224;28;20652;-66
2021/05/27 02:21:36;;;;;;;4.78;0.80;;;9.70;99.90;;;;;;5033665;28;20169;-68
2021/05/27 02:24:03;;;;;;;4.63;0.95;;;9.70;99.90;;;;;;5016642;28;20666;-69
2021/05/27 02:26:30;;;;;;;4.38;0.85;;;9.70;99.90;;;;;;4997385;28;20175;-67
2021/05/27 02:28:56;;;;;;;4.80;1.05;;;9.70;99.90;;;;;;5024087;28;20231;-68
2021/05/27 02:31:23;;;;;;;4.30;0.90;;;9.60;99.90;;;;;;5033677;28;20268;-67
2021/05/27 02:33:52;;;;;;;4.25;0.80;;;9.60;99.90;;;;;;5019730;28;20182;-68
2021/05/27 02:36:19;;;;;;;4.40;1.05;;;9.60;99.90;;;;;;5013746;28;20207;-66
2021/05/27 02:38:45;;;;;;;4.43;0.90;;;9.60;99.90;;;;;;5004713;28;20175;-67
2021/05/27 02:41:11;;;;;;;4.70;1.13;;;9.60;99.90;;;;;;4993856;28;20168;-67
2021/05/27 02:43:38;;;;;;;4.07;0.63;;;9.60;99.90;;;;;;5016110;28;20427;-67
2021/05/27 02:46:03;;;;;;;4.63;1.00;;;9.60;99.90;;;;;;5033349;28;20170;-66
2021/05/27 02:48:30;;;;;;;5.20;0.70;;;9.60;99.90;;;;;;5004638;28;20525;-67
2021/05/27 02:50:58;;;;;;;4.65;0.85;;;9.60;99.90;;;;;;5013725;28;20422;-67
2021/05/27 02:53:24;;;;;;;4.20;0.77;;;9.60;99.90;;;;;;5021958;28;20177;-66
2021/05/27 02:55:50;;;;;;;9.07;0.93;;;9.60;99.90;;;;;;5032940;28;20200;-67
2021/05/27 02:58:16;;;;;;;4.18;0.77;;;9.60;99.90;;;;;;5024408;28;20244;-67
2021/05/27 03:00:42;;;;;;;4.70;1.40;;;9.60;99.90;;;;;;5012601;28;20617;-67
2021/05/27 03:03:08;;;;;;;4.20;0.80;;;9.60;99.90;;;;;;5007564;28;20188;-68
2021/05/27 03:05:33;;;;;;;4.03;0.80;;;9.60;99.90;;;;;;5032983;28;20232;-67
2021/05/27 03:07:59;;;;;;;4.10;0.73;;;9.70;99.90;;;;;;5032391;28;20535;-67
2021/05/27 03:10:25;;;;;;;4.07;0.67;;;9.70;99.90;;;;;;5033116;28;20177;-66
2021/05/27 03:12:51;;;;;;;4.50;1.37;;;9.60;99.90;;;;;;5032644;28;20839;-68
2021/05/27 03:15:17;;;;;;;4.27;0.70;;;9.60;99.90;;;;;;5033142;28;20648;-67
2021/05/27 03:17:43;;;;;;;4.60;0.90;;;9.70;99.90;;;;;;5023201;28;20457;-67
2021/05/27 03:20:09;;;;;;;4.43;0.70;;;9.70;99.90;;;;;;5033180;28;20171;-67
2021/05/27 03:22:35;;;;;;;4.30;0.75;;;9.70;99.90;;;;;;5020075;28;20581;-67
2021/05/27 03:25:00;;;;;;;5.50;1.23;;;9.60;99.90;;;;;;5013001;28;20190;-67
2021/05/27 03:27:26;;;;;;;4.97;1.33;;;9.60;99.90;;;;;;5023674;28;20537;-67
2021/05/27 03:29:52;;;;;;;4.77;0.90;;;9.50;99.90;;;;;;5033095;28;20261;-67
2021/05/27 03:32:17;;;;;;;4.50;0.80;;;9.50;99.90;;;;;;5023717;28;20645;-67
2021/05/27 03:34:43;;;;;;;4.47;0.90;;;9.40;99.90;;;;;;5032650;28;20200;-66
2021/05/27 03:37:08;;;;;;;4.53;0.80;;;9.40;99.90;;;;;;5025161;28;20202;-68
2021/05/27 03:39:34;;;;;;;4.10;0.73;;;9.30;99.90;;;;;;5013049;28;20261;-67
2021/05/27 03:42:00;;;;;;;7.20;1.10;;;9.20;99.90;;;;;;5019315;28;20560;-68
2021/05/27 03:44:26;;;;;;;4.00;0.80;;;9.20;99.90;;;;;;5032462;28;20243;-67
2021/05/27 03:46:51;;;;;;;3.90;0.67;;;9.10;99.90;;;;;;5020517;28;20188;-66
2021/05/27 03:49:17;;;;;;;4.27;0.90;;;9.10;99.90;;;;;;5021144;28;20421;-66
2021/05/27 03:51:42;;;;;;;4.60;0.90;;;9.10;99.90;;;;;;5013953;28;20178;-68
2021/05/27 03:54:08;;;;;;;5.07;0.90;;;9.10;99.90;;;;;;5015056;28;20201;-69
2021/05/27 03:56:34;;;;;;;4.60;1.07;;;9.10;99.90;;;;;;5017602;28;20201;-67
2021/05/27 04:01:44;;;;;;;5.00;1.35;;;9.20;99.90;;;;;;5020849;28;20188;-67
2021/05/27 04:07:14;;;;;;;3.80;0.75;;;9.20;99.90;;;;;;5001983;28;20196;-67
2021/05/27 04:09:41;;;;;;;3.75;0.80;;;9.30;99.90;;;;;;5017786;28;20168;-67
2021/05/27 04:17:38;;;;;;;4.10;0.80;;;9.30;99.90;;;;;;5036031;28;20738;-66
2021/05/27 04:20:06;;;;;;;4.13;0.80;;;9.40;99.90;;;;;;5031155;28;20179;-67
2021/05/27 04:22:32;;;;;;;6.60;0.80;;;9.50;99.90;;;;;;4998445;28;20613;-66
2021/05/27 04:24:57;;;;;;;2.97;0.73;;;9.60;99.90;;;;;;5018353;28;20340;-67
2021/05/27 04:27:23;;;;;;;3.50;1.57;;;9.80;99.90;;;;;;5035751;28;20413;-67
2021/05/27 04:29:51;;;;;;;2.93;1.10;;;10.00;99.90;;;;;;5016949;28;20182;-67
2021/05/27 04:33:04;;;;;;;3.17;1.05;;;10.30;99.90;;;;;;4996596;28;20205;-68
2021/05/27 04:35:03;;;;;;;4.30;1.40;;;10.60;99.90;;;;;;4999906;28;20210;-67
2021/05/27 04:37:28;;;;;;;4.70;1.00;;;10.80;99.90;;;;;;5015899;28;20209;-67
2021/05/27 04:39:54;;;;;;;4.40;1.00;;;11.00;99.90;;;;;;5028466;28;20170;-68
2021/05/27 04:42:20;;;;;;;4.87;1.17;;;11.10;99.90;;;;;;5035757;28;20645;-67
2021/05/27 04:44:45;;;;;;;5.63;1.30;;;11.20;99.90;;;;;;5020449;28;20194;-67
2021/05/27 04:47:11;;;;;;;5.63;1.20;;;11.30;99.90;;;;;;5016847;28;20183;-67
2021/05/27 04:49:37;;;;;;;4.67;0.87;;;11.50;99.90;;;;;;5024919;28;20180;-66
2021/05/27 04:52:02;;;;;;;4.60;0.97;;;11.70;99.90;;;;;;5035107;28;20209;-67
2021/05/27 04:54:28;;;;;;;7.23;1.37;;;11.90;99.90;;;;;;5026850;28;20261;-66
2021/05/27 04:56:54;;;;;;;4.97;1.10;;;12.10;99.90;;;;;;5015339;28;20456;-68
2021/05/27 04:59:19;;;;;;;5.00;1.07;;;12.30;99.90;;;;;;5020724;28;20224;-67
2021/05/27 05:01:45;;;;;;;5.30;1.00;;;12.50;99.90;;;;;;5035297;28;20170;-67
2021/05/27 05:04:10;;;;;;;5.30;1.00;;;12.70;99.90;;;;;;5029038;28;20736;-66
2021/05/27 05:06:36;;;;;;;6.00;1.03;;;12.90;99.90;;;;;;5014534;28;20201;-67
2021/05/27 05:09:03;;;;;;;6.23;1.10;;;12.50;99.90;;;;;;5018221;28;20544;-66
2021/05/27 05:11:28;;;;;;;6.00;1.55;;;12.30;99.90;;;;;;5032678;28;20187;-66
2021/05/27 05:13:54;;;;;;;5.90;1.40;;;12.00;99.90;;;;;;5013976;28;20207;-66
2021/05/27 05:16:20;;;;;;;6.47;1.70;;;11.80;99.90;;;;;;5014716;28;20242;-67
2021/05/27 05:18:45;;;;;;;5.87;1.70;;;11.60;99.90;;;;;;5014979;28;20425;-67
2021/05/27 05:21:11;;;;;;;6.50;1.10;;;11.40;99.90;;;;;;5015150;28;20171;-66
2021/05/27 05:23:37;;;;;;;5.60;1.30;;;11.30;99.90;;;;;;5030133;28;20183;-66
2021/05/27 05:26:02;;;;;;;7.23;1.30;;;11.30;99.90;;;;;;5015045;28;20260;-66
2021/05/27 05:28:28;;;;;;;6.50;1.47;;;11.50;99.90;;;;;;5027650;28;20174;-67
2021/05/27 05:30:54;;;;;;;5.23;0.90;;;11.70;99.90;;;;;;5014988;28;20171;-65
2021/05/27 05:33:19;;;;;;;5.93;1.50;;;12.00;99.90;;;;;;5029177;28;20711;-67
2021/05/27 05:35:45;;;;;;;9.00;0.97;;;12.30;99.90;;;;;;5034581;28;20186;-66
2021/05/27 05:38:11;;;;;;;5.90;1.30;;;12.70;99.90;;;;;;5020714;28;20205;-66
2021/05/27 05:40:36;;;;;;;5.53;1.33;;;13.20;99.90;;;;;;5015032;28;20662;-66
2021/05/27 05:43:03;;;;;;;4.90;0.73;;;13.50;99.90;;;;;;5015318;28;20192;-66
2021/05/27 05:45:29;;;;;;;5.40;0.90;;;13.60;99.90;;;;;;5028843;28;20196;-66
2021/05/27 05:47:55;;;;;;;5.70;1.20;;;13.40;99.90;;;;;;5015558;28;20414;-65
2021/05/27 05:53:09;;;;;;;5.50;1.47;;;13.10;99.90;;;;;;5032224;28;20503;-66
2021/05/27 05:55:35;;;;;;;5.90;1.30;;;13.00;99.90;;;;;;5014348;28;20437;-67
2021/05/27 05:58:02;;;;;;;6.13;1.63;;;13.00;99.90;;;;;;5011774;28;20563;-65
2021/05/27 06:00:28;;;;;;;5.67;1.13;;;12.90;99.90;;;;;;5032469;28;20814;-67
2021/05/27 06:02:54;;;;;;;6.90;2.33;;;12.70;99.90;;;;;;5033637;28;20445;-67
2021/05/27 06:05:20;;;;;;;6.13;1.60;;;12.70;99.90;;;;;;5013899;28;20486;-67
2021/05/27 06:07:45;;;;;;;5.40;1.20;;;12.60;99.90;;;;;;5014194;28;20162;-67
2021/05/27 06:10:11;;;;;;;5.97;1.53;;;12.50;99.90;;;;;;5031301;28;20259;-66
2021/05/27 06:12:39;;;;;;;5.60;1.43;;;12.60;99.90;;;;;;5032267;28;20199;-65
2021/05/27 06:15:07;;;;;;;5.40;1.10;;;12.90;99.90;;;;;;5033259;28;20721;-66
2021/05/27 06:17:33;;;;;;;5.60;1.20;;;13.00;99.90;;;;;;5033079;28;20458;-65
2021/05/27 06:19:59;;;;;;;6.00;1.17;;;13.10;99.90;;;;;;5005799;28;20948;-66
2021/05/27 06:22:25;;;;;;;5.67;1.33;;;13.00;99.90;;;;;;5017017;28;20450;-67
2021/05/27 06:24:50;;;;;;;5.93;1.43;;;13.10;99.90;;;;;;4994165;28;20202;-67
2021/05/27 06:27:16;;;;;;;5.20;1.10;;;13.10;99.90;;;;;;5006496;28;20192;-67
2021/05/27 06:29:42;;;;;;;5.57;1.60;;;13.20;99.90;;;;;;5014830;28;20189;-66
2021/05/27 06:32:07;;;;;;;7.40;1.30;;;13.40;99.90;;;;;;5015028;28;20188;-66
2021/05/27 06:34:33;;;;;;;8.43;2.17;;;13.40;99.90;;;;;;5011980;28;20204;-66
2021/05/27 06:36:59;;;;;;;5.63;1.80;;;13.60;99.90;;;;;;4994161;28;20208;-66
2021/05/27 06:39:25;;;;;;;5.10;1.10;;;13.70;99.90;;;;;;5002299;28;20452;-66
2021/05/27 06:41:53;;;;;;;5.93;1.30;;;13.80;99.90;;;;;;5013802;28;20184;-66
2021/05/27 06:44:18;;;;;;;4.70;0.87;;;14.10;99.90;;;;;;5018353;28;20809;-67
2021/05/27 06:46:44;;;;;;;4.77;1.10;;;14.40;99.90;;;;;;5033464;28;20401;-66
2021/05/27 06:49:09;;;;;;;5.00;1.33;;;14.50;99.90;;;;;;5026567;28;20658;-65
2021/05/27 06:51:35;;;;;;;5.70;1.23;;;14.60;99.90;;;;;;5021247;28;20185;-67
2021/05/27 06:54:01;;;;;;;4.60;1.00;;;14.60;99.90;;;;;;5019823;28;20288;-67
2021/05/27 06:56:26;;;;;;;4.40;1.10;;;14.40;99.90;;;;;;5033249;28;20201;-67
2021/05/27 06:58:52;;;;;;;4.20;0.80;;;14.50;99.90;;;;;;5011848;28;20236;-67
2021/05/27 07:01:18;;;;;;;5.37;1.23;;;14.50;99.90;;;;;;5013590;28;20529;-65
2021/05/27 07:03:43;;;;;;;5.57;1.13;;;14.50;99.90;;;;;;5017135;28;20714;-66
2021/05/27 07:06:09;;;;;;;4.90;1.07;;;14.60;99.90;;;;;;5032872;28;20181;-66
2021/05/27 07:08:36;;;;;;;5.63;0.90;;;14.70;99.90;;;;;;5022389;28;20223;-65
2021/05/27 07:11:02;;;;;;;5.30;1.20;;;14.80;99.90;;;;;;5014490;28;20187;-66
2021/05/27 07:13:28;;;;;;;5.80;1.13;;;14.90;99.90;;;;;;5012260;28;20480;-67
2021/05/27 07:15:54;;;;;;;6.30;2.60;;;15.10;99.90;;;;;;5014001;28;20472;-69
2021/05/27 07:18:19;;;;;;;7.97;3.33;;;15.40;99.90;;;;;;5013028;28;20206;-65
2021/05/27 07:20:45;;;;;;;4.00;0.70;;;15.60;98.80;;;;;;5023738;28;20172;-68
2021/05/27 07:23:11;;;;;;;4.60;1.10;;;15.70;98.20;;;;;;4999262;28;20171;-65
2021/05/27 07:25:37;;;;;;;4.20;0.90;;;16.20;97.60;;;;;;5008512;28;20485;-64
2021/05/27 07:28:03;;;;;;;4.47;1.10;;;16.70;97.10;;;;;;5025299;28;20265;-67
2021/05/27 07:30:31;;;;;;;5.37;2.10;;;17.60;97.30;;;;;;5036545;28;20524;-67
2021/05/27 07:32:57;;;;;;;4.70;0.90;;;19.00;95.00;;;;;;5035560;28;20428;-67
2021/05/27 07:35:25;;;;;;;3.90;0.90;;;20.50;92.40;;;;;;5031244;28;20431;-67
2021/05/27 07:37:55;;;;;;;3.70;0.80;;;20.70;89.60;;;;;;5024393;28;20202;-65
2021/05/27 07:40:21;;;;;;;3.60;0.90;;;20.30;89.10;;;;;;5036714;28;20438;-66
2021/05/27 07:42:46;;;;;;;3.40;0.70;;;20.00;90.90;;;;;;5033949;28;20919;-66
2021/05/27 07:45:12;;;;;;;3.73;0.67;;;20.60;89.40;;;;;;5007579;28;20523;-66
2021/05/27 07:47:38;;;;;;;4.17;1.00;;;21.70;89.00;;;;;;5018364;28;20185;-66
2021/05/27 07:50:06;;;;;;;3.80;1.03;;;23.10;84.30;;;;;;5036359;28;20457;-67
2021/05/27 07:52:31;;;;;;;5.30;2.30;;;24.10;79.90;;;;;;5034517;28;20208;-66
2021/05/27 07:54:57;;;;;;;6.83;1.70;;;23.90;76.00;;;;;;5035499;28;20794;-66
2021/05/27 07:57:23;;;;;;;3.67;1.20;;;23.20;72.90;;;;;;5034733;28;20721;-66
2021/05/27 07:59:48;;;;;;;3.40;0.83;;;22.80;75.90;;;;;;5021346;28;20730;-67
2021/05/27 08:02:14;;;;;;;3.20;0.80;;;23.10;75.60;;;;;;5017364;28;20262;-68
2021/05/27 08:04:42;;;;;;;3.40;0.90;;;24.00;72.50;;;;;;5015786;28;20333;-67
2021/05/27 08:07:09;;;;;;;3.70;0.97;;;25.00;70.80;;;;;;5016039;28;20549;-67
2021/05/27 08:09:36;;;;;;;3.83;1.00;;;25.80;65.60;;;;;;4996839;28;20423;-67
2021/05/27 08:12:02;;;;;;;3.03;0.83;;;26.50;65.10;;;;;;5030543;28;20428;-68
2021/05/27 08:14:27;;;;;;;2.90;1.00;;;27.60;62.70;;;;;;5035378;28;20407;-67
2021/05/27 08:16:53;;;;;;;2.90;0.90;;;28.00;59.30;;;;;;5033234;28;20293;-66
2021/05/27 08:19:18;;;;;;;3.10;1.10;;;27.40;57.60;;;;;;5016052;28;20267;-66
2021/05/27 08:21:44;;;;;;;3.13;0.97;;;26.40;60.80;;;;;;5031020;28;20214;-65
2021/05/27 08:24:10;;;;;;;3.00;0.93;;;25.50;59.30;;;;;;5035186;28;20189;-65
2021/05/27 08:26:35;;;;;;;2.93;0.80;;;24.30;59.40;;;;;;5017814;28;20174;-66
2021/05/27 08:29:02;;;;;;;3.37;0.90;;;23.30;63.20;;;;;;4989568;28;20195;-67
2021/05/27 08:31:27;;;;;;;3.67;1.17;;;23.40;65.90;;;;;;4996489;28;20163;-66
2021/05/27 08:33:53;;;;;;;3.73;1.10;;;23.40;65.00;;;;;;5029897;28;20504;-67
2021/05/27 08:36:19;;;;;;;3.00;0.93;;;23.20;63.80;;;;;;5017352;28;20198;-65
2021/05/27 08:38:44;;;;;;;3.30;1.23;;;23.00;64.30;;;;;;5033432;28;20189;-66
2021/05/27 08:41:11;;;;;;;3.40;1.90;;;23.30;64.80;;;;;;5017655;28;20174;-67
2021/05/27 08:43:37;;;;;;;3.10;1.10;;;23.90;62.90;;;;;;5021727;28;20227;-67
2021/05/27 08:46:05;;;;;;;3.30;1.10;;;24.40;62.70;;;;;;5022195;28;20508;-67
2021/05/27 08:48:31;;;;;;;4.13;1.20;;;24.60;60.80;;;;;;5035399;28;20414;-66
2021/05/27 08:50:59;;;;;;;4.03;0.93;;;23.90;61.70;;;;;;5021545;28;20906;-65
2021/05/27 08:53:25;;;;;;;3.20;0.90;;;23.30;61.80;;;;;;5028426;28;20428;-65
2021/05/27 08:55:51;;;;;;;2.80;0.77;;;23.00;64.10;;;;;;5022651;28;20461;-66
2021/05/27 08:58:18;;;;;;;3.10;0.83;;;23.50;64.60;;;;;;5014462;28;20453;-67
2021/05/27 09:00:44;;;;;;;2.90;0.77;;;24.60;61.80;;;;;;5026835;28;20533;-65
2021/05/27 09:03:13;;;;;;;3.23;0.93;;;25.50;59.60;;;;;;5034896;28;20409;-66
2021/05/27 09:05:40;;;;;;;2.90;1.07;;;26.10;58.90;;;;;;5023535;28;20457;-66
2021/05/27 09:08:24;;;;;;;4.27;2.27;;;26.80;58.30;;;;;;5014992;28;20408;-67
2021/05/27 09:10:51;;;;;;;2.90;1.10;;;27.70;57.60;;;;;;5017399;28;20433;-65
2021/05/27 09:13:19;;;;;;;3.20;1.00;;;28.70;54.80;;;;;;5034699;28;20384;-63
2021/05/27 09:15:46;;;;;;;2.90;0.80;;;29.00;55.00;;;;;;5023680;28;20412;-64
2021/05/27 09:18:11;;;;;;;2.57;0.80;;;28.50;53.40;;;;;;5015914;28;20530;-66
2021/05/27 09:20:38;;;;;;;2.57;0.83;;;28.00;53.60;;;;;;5014151;28;20483;-65
2021/05/27 09:23:17;;;;;;;2.40;0.60;;;26.90;53.40;;;;;;5022679;28;20186;-65
2021/05/27 09:25:51;;;;;;;2.60;0.80;;;25.70;54.60;;;;;;5034731;28;20465;-64
2021/05/27 09:28:27;;;;;;;2.70;0.70;;;25.90;57.00;;;;;;5023966;28;20443;-64
2021/05/27 09:30:55;;;;;;;2.83;0.83;;;25.30;56.00;;;;;;5014245;28;20408;-64
2021/05/27 09:33:33;;;;;;;2.70;0.83;;;24.30;56.10;;;;;;5017411;28;20958;-65
2021/05/27 09:36:01;;;;;;;3.50;1.20;;;23.10;57.60;;;;;;4997264;28;20810;-66
2021/05/27 09:38:31;;;;;;;5.33;2.63;;;22.00;60.70;;;;;;5014629;28;20481;-66
2021/05/27 09:40:57;;;;;;;3.10;0.90;;;21.00;62.60;;;;;;5014849;28;20418;-67
2021/05/27 09:43:25;;;;;;;3.83;1.20;;;20.30;66.00;;;;;;5024369;28;20931;-67
2021/05/27 09:46:06;;;;;;;2.70;0.80;;;20.20;67.30;;;;;;5034146;28;20430;-68
2021/05/27 09:48:33;;;;;;;3.00;1.20;;;19.90;68.00;;;;;;5023232;28;20421;-66
2021/05/27 09:51:01;;;;;;;2.80;0.90;;;19.70;67.80;;;;;;5013784;28;20410;-63
2021/05/27 09:53:29;;;;;;;3.10;0.80;;;19.50;68.80;;;;;;5023400;28;20501;-65
2021/05/27 09:55:56;;;;;;;4.60;1.70;;;19.40;70.10;;;;;;4996312;28;20452;-68
2021/05/27 09:58:22;;;;;;;2.80;0.80;;;19.40;70.40;;;;;;5003844;28;20426;-70
2021/05/27 10:00:49;;;;;;;3.03;0.90;;;19.70;71.60;;;;;;5014423;28;20424;-70
2021/05/27 10:03:38;;;;;;;3.00;1.10;;;19.80;71.10;;;;;;5021560;28;20413;-70
2021/05/27 10:06:09;;;;;;;3.37;0.87;;;19.70;69.60;;;;;;5008070;28;20837;-67
2021/05/27 10:08:56;;;;;;;3.53;0.93;;;19.40;69.90;;;;;;5014167;28;20421;-69
2021/05/27 10:11:24;;;;;;;2.80;0.90;;;18.70;70.20;;;;;;5033854;28;20412;-71
2021/05/27 10:13:51;;;;;;;2.97;0.70;;;18.20;70.80;;;;;;5021495;28;20418;-71
2021/05/27 10:16:19;;;;;;;3.10;1.07;;;18.10;72.00;;;;;;5014151;28;20495;-71
2021/05/27 10:18:48;;;;;;;3.03;1.07;;;17.80;72.90;;;;;;5024133;28;20421;-71
2021/05/27 10:21:14;;;;;;;5.40;1.10;;;17.40;74.50;;;;;;4999657;28;20513;-68
2021/05/27 10:23:40;;;;;;;3.80;1.07;;;17.10;77.10;;;;;;5014856;28;20516;-68
2021/05/27 10:26:06;;;;;;;3.27;1.00;;;16.90;79.00;;;;;;5013751;28;20176;-65
2021/05/27 10:28:33;;;;;;;5.50;1.00;;;16.70;79.20;;;;;;5022922;28;20434;-70
2021/05/27 10:30:59;;;;;;;3.40;1.33;;;16.70;80.50;;;;;;5033406;28;20407;-71
2021/05/27 10:33:29;;;;;;;4.10;1.50;;;16.70;80.70;;;;;;5024300;28;20777;-72
2021/05/27 10:36:04;;;;;;;3.50;1.30;;;16.60;82.30;;;;;;4996239;28;20503;-71
2021/05/27 10:38:42;;;;;;;2.93;1.00;;;16.40;82.90;;;;;;5012395;28;20437;-70
2021/05/27 10:41:29;;;;;;;3.77;0.97;;;16.10;83.70;;;;;;5014013;28;20445;-74
2021/05/27 10:44:24;;;;;;;3.60;1.50;;;15.90;86.40;;;;;;5024547;28;20487;-69
2021/05/27 10:46:53;;;;;;;4.93;1.17;;;15.80;87.20;;;;;;4934398;29;20468;-71
2021/05/27 10:49:45;;;;;;;3.30;1.10;;;15.80;87.70;;;;;;4919204;29;20462;-72
2021/05/27 10:52:32;;;;;;;3.23;0.87;;;16.00;86.60;;;;;;4915293;29;20410;-72
2021/05/27 10:54:58;;;;;;;4.13;1.10;;;16.40;85.70;;;;;;4915679;29;20457;-72
2021/05/27 10:58:00;;;;;;;3.40;1.40;;;16.70;85.50;;;;;;4914750;29;20968;-72
2021/05/27 11:00:32;;;;;;;3.77;1.10;;;16.90;84.50;;;;;;4896273;29;20231;-71
2021/05/27 11:03:35;;;;;;;3.60;1.20;;;17.10;85.50;;;;;;4925491;29;20534;-68
2021/05/27 11:06:22;;;;;;;3.73;1.10;;;17.30;85.30;;;;;;4918884;29;20448;-68
2021/05/27 11:09:13;;;;;;;3.57;1.00;;;17.50;85.20;;;;;;4919647;29;20535;-68
2021/05/27 11:11:45;;;;;;;3.50;1.30;;;17.80;82.90;;;;;;4916270;29;20432;-70
2021/05/27 11:14:14;;;;;;;3.57;1.30;;;18.20;84.40;;;;;;4918476;29;20508;-69
2021/05/27 11:19:58;;;;;;;3.27;0.97;;;19.30;82.60;;;;;;4922069;29;20907;-69
2021/05/27 11:22:33;;;;;;;3.13;0.83;;;19.50;79.80;;;;;;4918885;29;20514;-69
2021/05/27 11:25:13;;;;;;;2.90;0.60;;;19.40;79.10;;;;;;5007678;28;20441;-69
2021/05/27 11:27:53;;;;;;;3.37;0.90;;;19.30;79.80;;;;;;5036875;28;20447;-68
2021/05/27 11:30:25;;;;;;;3.30;1.00;;;19.30;76.90;;;;;;5026871;28;20428;-67
2021/05/27 11:33:03;;;;;;;3.30;1.10;;;19.20;76.50;;;;;;5012308;28;20425;-66
2021/05/27 11:35:38;;;;;;;3.33;1.23;;;19.20;75.60;;;;;;5018995;28;20432;-66
2021/05/27 11:38:22;;;;;;;4.37;1.00;;;19.20;76.70;;;;;;5036638;28;20918;-66
2021/05/27 11:40:49;;;;;;;3.10;1.00;;;19.40;78.30;;;;;;5024304;28;20490;-66
2021/05/27 11:43:17;;;;;;;3.30;0.90;;;19.50;79.30;;;;;;5013041;28;20512;-66
2021/05/27 11:45:48;;;;;;;3.60;1.30;;;19.60;77.70;;;;;;5028062;28;20451;-66
2021/05/27 11:48:26;;;;;;;3.70;1.20;;;19.60;74.80;;;;;;5036353;28;20549;-66
2021/05/27 11:51:12;;;;;;;3.20;1.10;;;19.30;75.80;;;;;;5024840;28;20413;-66
2021/05/27 11:54:02;;;;;;;3.10;0.67;;;19.20;79.10;;;;;;5016332;28;20792;-66
2021/05/27 11:56:38;;;;;;;4.47;0.90;;;19.10;78.70;;;;;;5017253;28;20489;-66
2021/05/27 11:59:09;;;;;;;3.20;1.00;;;19.10;77.60;;;;;;5015371;28;20437;-66
2021/05/27 12:01:35;;;;;;;2.90;0.60;;;18.80;77.60;;;;;;5034131;28;20441;-66
2021/05/27 12:04:08;;;;;;;3.90;1.30;;;18.50;77.50;;;;;;5036017;28;20433;-66
2021/05/27 12:06:54;;;;;;;3.40;0.97;;;18.40;78.10;;;;;;5009294;28;20932;-66
2021/05/27 12:09:41;;;;;;;3.30;0.80;;;18.30;77.90;;;;;;4997045;28;20436;-66
2021/05/27 12:12:09;;;;;;;3.83;1.20;;;18.20;77.30;;;;;;5011787;28;20458;-66
2021/05/27 12:15:04;;;;;;;5.20;0.93;;;18.20;78.60;;;;;;5015124;28;20426;-66
2021/05/27 12:17:38;;;;;;;3.10;1.03;;;18.50;79.10;;;;;;5013999;28;20421;-66
2021/05/27 12:20:28;;;;;;;3.90;1.00;;;18.90;78.90;;;;;;5016942;28;20423;-66
2021/05/27 12:23:03;;;;;;;3.37;1.17;;;19.40;82.60;;;;;;5014837;28;20522;-66
2021/05/27 12:25:33;;;;;;;3.40;0.93;;;19.80;78.50;;;;;;5020791;28;20436;-66
2021/05/27 12:28:01;;;;;;;3.73;0.90;;;20.20;78.40;;;;;;5035689;28;20452;-66
2021/05/27 12:30:34;;;;;;;3.00;0.80;;;20.40;75.90;;;;;;5030224;28;20765;-66
2021/05/27 12:33:00;;;;;;;3.87;1.10;;;20.50;77.90;;;;;;5015813;28;20413;-66
2021/05/27 12:35:28;;;;;;;3.20;0.90;;;20.40;75.30;;;;;;5016066;28;20446;-66
2021/05/27 12:37:55;;;;;;;4.93;0.90;;;20.50;76.10;;;;;;5016054;28;20421;-66
2021/05/27 12:40:35;;;;;;;3.00;0.97;;;20.50;73.70;;;;;;5020022;28;20430;-65
2021/05/27 12:43:03;;;;;;;4.13;1.57;;;20.70;74.60;;;;;;5035415;28;20428;-68
2021/05/27 12:45:38;;;;;;;4.17;1.10;;;20.90;74.10;;;;;;5030198;28;20477;-67
2021/05/27 12:48:18;;;;;;;2.90;0.67;;;20.90;73.30;;;;;;4998701;28;20466;-67
2021/05/27 12:50:59;;;;;;;3.10;0.80;;;20.90;75.80;;;;;;5021292;28;20795;-67
2021/05/27 12:53:31;;;;;;;3.17;0.80;;;20.80;75.50;;;;;;5035047;28;20411;-67
2021/05/27 12:56:15;;;;;;;3.33;1.23;;;20.80;73.80;;;;;;5034622;28;20448;-68
2021/05/27 12:58:44;;;;;;;3.50;0.97;;;20.70;74.20;;;;;;5030366;28;20496;-65
2021/05/27 13:01:10;;;;;;;3.17;1.00;;;20.50;74.40;;;;;;5007171;28;20480;-65
2021/05/27 13:03:48;;;;;;;4.50;1.00;;;20.40;72.00;;;;;;5034942;28;20413;-66
2021/05/27 13:06:17;;;;;;;3.50;1.17;;;20.20;70.90;;;;;;5024969;28;20445;-65
2021/05/27 13:08:44;;;;;;;3.30;0.90;;;20.00;73.70;;;;;;5015324;28;20464;-67
2021/05/27 13:11:33;;;;;;;4.00;0.80;;;19.80;76.40;;;;;;5031092;28;20421;-67
2021/05/27 13:14:15;;;;;;;4.70;1.90;;;19.70;75.20;;;;;;5016200;28;20530;-67
2021/05/27 13:16:45;;;;;;;3.20;1.00;;;19.70;77.30;;;;;;5007091;28;20468;-67
2021/05/27 13:19:13;;;;;;;3.63;1.00;;;19.60;74.80;;;;;;4996774;28;20415;-67